createdAt,value
2023-05-18T00:00:37.433Z,77.69
2023-05-18T00:01:37.434Z,77.38
2023-05-18T00:02:37.441Z,77.48
2023-05-18T00:03:37.555Z,77.89
2023-05-18T00:04:37.498Z,77.72
2023-05-18T00:05:37.398Z,78.03
2023-05-18T00:06:37.349Z,78.24
2023-05-18T00:07:37.357Z,77.93
2023-05-18T00:08:37.352Z,77.93
2023-05-18T00:09:37.343Z,78.03
2023-05-18T00:10:37.353Z,77.83
2023-05-18T00:11:37.296Z,77.97
2023-05-18T00:12:37.281Z,77.76
2023-05-18T00:13:37.287Z,77.86
2023-05-18T00:14:37.267Z,78.17
2023-05-18T00:15:37.237Z,78.38
2023-05-18T00:16:37.267Z,77.76
2023-05-18T00:17:37.280Z,77.25
2023-05-18T00:18:37.223Z,76.93
2023-05-18T00:19:37.189Z,77.48
2023-05-18T00:20:37.163Z,78.11
2023-05-18T00:21:37.167Z,78.31
2023-05-18T00:22:37.162Z,78.83
2023-05-18T00:23:37.149Z,78.52
2023-05-18T00:24:37.287Z,78.52
2023-05-18T00:25:37.113Z,78.31
2023-05-18T00:26:37.107Z,77.90
2023-05-18T00:27:37.107Z,78.11
2023-05-18T00:28:37.056Z,78.41
2023-05-18T00:29:37.069Z,78.34
2023-05-18T00:30:37.050Z,78.55
2023-05-18T00:31:37.038Z,78.66
2023-05-18T00:32:37.069Z,78.66
2023-05-18T00:33:36.989Z,78.41
2023-05-18T00:34:36.978Z,78.00
2023-05-18T00:35:36.978Z,77.48
2023-05-18T00:36:36.994Z,77.28
2023-05-18T00:37:36.958Z,76.87
2023-05-18T00:38:36.932Z,76.35
2023-05-18T00:39:36.925Z,75.84
2023-05-18T00:40:36.920Z,75.73
2023-05-18T00:41:36.914Z,75.84
2023-05-18T00:42:36.936Z,76.46
2023-05-18T00:43:36.867Z,76.87
2023-05-18T00:44:36.851Z,77.11
2023-05-18T00:45:36.911Z,77.11
2023-05-18T00:46:37.068Z,76.49
2023-05-18T00:47:36.866Z,76.59
2023-05-18T00:48:36.802Z,77.01
2023-05-18T00:49:36.806Z,77.22
2023-05-18T00:50:36.779Z,77.52
2023-05-18T00:51:36.787Z,77.62
2023-05-18T00:52:36.747Z,77.52
2023-05-18T00:53:36.733Z,77.62
2023-05-18T00:54:36.724Z,78.24
2023-05-18T00:55:36.749Z,77.94
2023-05-18T00:56:36.688Z,78.34
2023-05-18T00:57:36.717Z,78.76
2023-05-18T00:58:36.675Z,78.97
2023-05-18T00:59:36.678Z,79.07
2023-05-18T01:00:36.657Z,79.48
2023-05-18T01:01:36.825Z,79.58
2023-05-18T01:02:36.674Z,79.48
2023-05-18T01:03:36.681Z,79.27
2023-05-18T01:04:36.621Z,79.58
2023-05-18T01:05:36.588Z,79.79
2023-05-18T01:06:36.714Z,79.79
2023-05-18T01:07:36.555Z,79.90
2023-05-18T01:08:36.543Z,79.90
2023-05-18T01:09:36.543Z,79.58
2023-05-18T01:10:36.515Z,79.48
2023-05-18T01:11:36.557Z,79.48
2023-05-18T01:12:36.496Z,79.27
2023-05-18T01:13:36.473Z,79.41
2023-05-18T01:14:36.476Z,79.31
2023-05-18T01:15:36.519Z,79.31
2023-05-18T01:16:36.484Z,79.11
2023-05-18T01:17:36.502Z,78.69
2023-05-18T01:18:36.494Z,78.59
2023-05-18T01:19:36.420Z,78.69
2023-05-18T01:20:36.381Z,78.49
2023-05-18T01:21:36.362Z,78.49
2023-05-18T01:22:36.379Z,79.00
2023-05-18T01:23:36.377Z,78.59
2023-05-18T01:24:36.332Z,78.59
2023-05-18T01:25:36.348Z,79.11
2023-05-18T01:26:36.294Z,79.21
2023-05-18T01:27:36.298Z,78.90
2023-05-18T01:28:36.292Z,78.94
2023-05-18T01:29:36.264Z,79.04
2023-05-18T01:30:36.277Z,79.04
2023-05-18T01:31:36.369Z,79.04
2023-05-18T01:32:36.280Z,79.35
2023-05-18T01:33:36.255Z,79.66
2023-05-18T01:34:36.197Z,79.45
2023-05-18T01:35:36.213Z,79.45
2023-05-18T01:36:36.158Z,79.45
2023-05-18T01:37:36.190Z,79.25
2023-05-18T01:38:36.142Z,78.83
2023-05-18T01:39:36.138Z,78.63
2023-05-18T01:40:36.116Z,78.52
2023-05-18T01:41:36.110Z,78.42
2023-05-18T01:42:36.106Z,78.94
2023-05-18T01:43:36.077Z,78.52
2023-05-18T01:44:36.066Z,78.42
2023-05-18T01:45:36.063Z,78.52
2023-05-18T01:46:36.063Z,78.25
2023-05-18T01:47:36.060Z,78.35
2023-05-18T01:48:36.028Z,78.77
2023-05-18T01:49:36.010Z,78.97
2023-05-18T01:50:35.976Z,79.08
2023-05-18T01:51:35.976Z,78.87
2023-05-18T01:52:35.971Z,78.87
2023-05-18T01:53:35.952Z,78.66
2023-05-18T01:54:35.929Z,78.97
2023-05-18T01:55:35.930Z,79.08
2023-05-18T01:56:35.929Z,79.18
2023-05-18T01:57:35.951Z,79.49
2023-05-18T01:58:35.877Z,79.59
2023-05-18T01:59:35.886Z,79.80
2023-05-18T02:00:35.849Z,79.80
2023-05-18T02:01:35.924Z,79.59
2023-05-18T02:02:35.882Z,79.80
2023-05-18T02:03:35.911Z,80.00
2023-05-18T02:04:35.806Z,79.90
2023-05-18T02:05:35.791Z,79.90
2023-05-18T02:06:35.793Z,79.90
2023-05-18T02:07:35.767Z,80.00
2023-05-18T02:08:35.760Z,79.90
2023-05-18T02:09:35.732Z,79.59
2023-05-18T02:10:35.735Z,79.69
2023-05-18T02:11:35.750Z,79.69
2023-05-18T02:12:35.711Z,80.00
2023-05-18T02:13:35.682Z,80.32
2023-05-18T02:14:35.664Z,80.42
2023-05-18T02:15:35.673Z,80.56
2023-05-18T02:16:35.697Z,80.66
2023-05-18T02:17:35.712Z,80.76
2023-05-18T02:18:35.634Z,80.25
2023-05-18T02:19:35.628Z,79.83
2023-05-18T02:20:35.617Z,79.94
2023-05-18T02:21:35.597Z,79.63
2023-05-18T02:22:35.553Z,79.32
2023-05-18T02:23:35.551Z,79.01
2023-05-18T02:24:35.533Z,79.11
2023-05-18T02:25:35.539Z,79.52
2023-05-18T02:26:35.515Z,79.97
2023-05-18T02:27:35.517Z,79.97
2023-05-18T02:28:35.480Z,80.08
2023-05-18T02:29:35.467Z,80.25
2023-05-18T02:30:35.468Z,80.25
2023-05-18T02:31:35.521Z,80.76
2023-05-18T02:32:35.527Z,80.70
2023-05-18T02:33:35.427Z,80.60
2023-05-18T02:34:35.393Z,80.60
2023-05-18T02:35:35.408Z,80.39
2023-05-18T02:36:35.377Z,80.39
2023-05-18T02:37:35.378Z,80.39
2023-05-18T02:38:35.349Z,80.80
2023-05-18T02:39:35.362Z,81.21
2023-05-18T02:40:35.337Z,81.01
2023-05-18T02:41:35.317Z,80.80
2023-05-18T02:42:35.293Z,80.70
2023-05-18T02:43:35.294Z,80.70
2023-05-18T02:44:35.291Z,80.70
2023-05-18T02:45:35.270Z,80.90
2023-05-18T02:46:35.250Z,81.07
2023-05-18T02:47:35.287Z,81.21
2023-05-18T02:48:35.214Z,81.32
2023-05-18T02:49:35.246Z,81.42
2023-05-18T02:50:35.193Z,81.42
2023-05-18T02:51:35.203Z,81.21
2023-05-18T02:52:35.155Z,81.11
2023-05-18T02:53:35.175Z,81.52
2023-05-18T02:54:35.161Z,81.63
2023-05-18T02:55:35.120Z,81.63
2023-05-18T02:56:35.114Z,81.42
2023-05-18T02:57:35.098Z,81.32
2023-05-18T02:58:35.094Z,81.21
2023-05-18T02:59:35.072Z,81.42
2023-05-18T03:00:35.069Z,81.42
2023-05-18T03:01:35.131Z,81.15
2023-05-18T03:02:35.085Z,80.94
2023-05-18T03:03:35.152Z,81.15
2023-05-18T03:04:35.007Z,81.25
2023-05-18T03:05:34.990Z,81.25
2023-05-18T03:06:34.972Z,81.56
2023-05-18T03:07:34.986Z,81.87
2023-05-18T03:08:34.965Z,81.67
2023-05-18T03:09:34.942Z,81.56
2023-05-18T03:10:34.929Z,81.67
2023-05-18T03:11:34.913Z,82.08
2023-05-18T03:12:34.897Z,82.18
2023-05-18T03:13:34.909Z,81.77
2023-05-18T03:14:34.873Z,81.87
2023-05-18T03:15:34.867Z,82.18
2023-05-18T03:16:34.849Z,82.70
2023-05-18T03:17:34.939Z,82.29
2023-05-18T03:18:34.891Z,81.77
2023-05-18T03:19:34.820Z,81.56
2023-05-18T03:20:34.790Z,81.56
2023-05-18T03:21:34.778Z,81.98
2023-05-18T03:22:34.802Z,81.98
2023-05-18T03:23:34.748Z,81.87
2023-05-18T03:24:34.748Z,81.77
2023-05-18T03:25:34.714Z,81.56
2023-05-18T03:26:34.722Z,81.35
2023-05-18T03:27:34.713Z,81.35
2023-05-18T03:28:34.697Z,81.46
2023-05-18T03:29:34.669Z,81.56
2023-05-18T03:30:34.668Z,81.67
2023-05-18T03:31:34.715Z,81.87
2023-05-18T03:32:34.694Z,81.87
2023-05-18T03:33:34.631Z,82.32
2023-05-18T03:34:34.613Z,81.91
2023-05-18T03:35:34.595Z,81.91
2023-05-18T03:36:34.606Z,82.12
2023-05-18T03:37:34.565Z,82.53
2023-05-18T03:38:34.570Z,82.53
2023-05-18T03:39:34.546Z,82.64
2023-05-18T03:40:34.545Z,82.53
2023-05-18T03:41:34.545Z,82.32
2023-05-18T03:42:34.511Z,82.22
2023-05-18T03:43:34.483Z,82.74
2023-05-18T03:44:34.473Z,82.95
2023-05-18T03:45:34.479Z,82.74
2023-05-18T03:46:34.493Z,82.53
2023-05-18T03:47:34.484Z,82.43
2023-05-18T03:48:34.422Z,82.43
2023-05-18T03:49:34.397Z,82.43
2023-05-18T03:50:34.415Z,82.43
2023-05-18T03:51:34.378Z,82.43
2023-05-18T03:52:34.377Z,82.64
2023-05-18T03:53:34.376Z,82.84
2023-05-18T03:54:34.343Z,82.74
2023-05-18T03:55:34.342Z,82.74
2023-05-18T03:56:34.315Z,82.84
2023-05-18T03:57:34.330Z,82.53
2023-05-18T03:58:34.304Z,82.43
2023-05-18T03:59:34.271Z,82.74
2023-05-18T04:00:34.308Z,82.84
2023-05-18T04:01:34.313Z,82.74
2023-05-18T04:02:34.421Z,82.64
2023-05-18T04:03:34.405Z,82.74
2023-05-18T04:04:34.195Z,83.05
2023-05-18T04:05:34.235Z,83.05
2023-05-18T04:06:34.195Z,82.84
2023-05-18T04:07:34.209Z,82.43
2023-05-18T04:08:34.158Z,82.53
2023-05-18T04:09:34.171Z,82.74
2023-05-18T04:10:34.147Z,82.57
2023-05-18T04:11:34.111Z,82.67
2023-05-18T04:12:34.111Z,82.57
2023-05-18T04:13:34.089Z,82.67
2023-05-18T04:14:34.110Z,82.74
2023-05-18T04:15:34.129Z,82.84
2023-05-18T04:16:34.580Z,82.74
2023-05-18T04:17:34.103Z,82.53
2023-05-18T04:18:34.123Z,82.64
2023-05-18T04:19:34.209Z,82.32
2023-05-18T04:20:33.996Z,82.32
2023-05-18T04:21:34.009Z,82.12
2023-05-18T04:22:33.967Z,82.22
2023-05-18T04:23:33.964Z,82.74
2023-05-18T04:24:33.976Z,83.15
2023-05-18T04:25:33.945Z,83.15
2023-05-18T04:26:33.936Z,83.05
2023-05-18T04:27:33.928Z,82.95
2023-05-18T04:28:33.908Z,82.80
2023-05-18T04:29:33.887Z,82.80
2023-05-18T04:30:33.860Z,82.80
2023-05-18T04:31:33.897Z,82.90
2023-05-18T04:32:33.861Z,82.90
2023-05-18T04:33:33.837Z,82.50
2023-05-18T04:34:33.800Z,82.29
2023-05-18T04:35:33.801Z,82.18
2023-05-18T04:36:33.803Z,82.29
2023-05-18T04:37:33.758Z,82.29
2023-05-18T04:38:33.781Z,82.18
2023-05-18T04:39:33.765Z,82.29
2023-05-18T04:40:33.824Z,82.25
2023-05-18T04:41:33.704Z,82.35
2023-05-18T04:42:33.698Z,82.15
2023-05-18T04:43:33.740Z,82.15
2023-05-18T04:44:33.674Z,81.94
2023-05-18T04:45:33.786Z,81.84
2023-05-18T04:46:33.728Z,81.73
2023-05-18T04:47:33.686Z,81.90
2023-05-18T04:48:33.642Z,82.00
2023-05-18T04:49:33.605Z,81.90
2023-05-18T04:50:33.589Z,81.90
2023-05-18T04:51:33.590Z,81.70
2023-05-18T04:52:33.594Z,81.59
2023-05-18T04:53:33.626Z,81.49
2023-05-18T04:54:33.542Z,81.38
2023-05-18T04:55:33.906Z,81.38
2023-05-18T04:56:33.518Z,81.49
2023-05-18T04:57:33.519Z,81.59
2023-05-18T04:58:33.495Z,81.80
2023-05-18T04:59:33.497Z,81.70
2023-05-18T05:00:33.477Z,81.59
2023-05-18T05:01:33.514Z,81.66
2023-05-18T05:02:33.525Z,81.56
2023-05-18T05:03:33.544Z,81.56
2023-05-18T05:04:33.410Z,81.59
2023-05-18T05:05:33.529Z,81.56
2023-05-18T05:06:33.410Z,81.45
2023-05-18T05:07:33.373Z,81.45
2023-05-18T05:08:33.357Z,81.45
2023-05-18T05:09:33.341Z,81.35
2023-05-18T05:10:33.331Z,81.35
2023-05-18T05:11:33.329Z,81.14
2023-05-18T05:12:33.348Z,81.14
2023-05-18T05:13:33.272Z,81.14
2023-05-18T05:14:33.268Z,81.31
2023-05-18T05:15:33.482Z,81.31
2023-05-18T05:16:33.313Z,81.41
2023-05-18T05:17:33.299Z,81.62
2023-05-18T05:18:33.220Z,81.72
2023-05-18T05:19:33.233Z,81.72
2023-05-18T05:20:33.215Z,81.82
2023-05-18T05:21:33.206Z,81.62
2023-05-18T05:22:33.282Z,81.72
2023-05-18T05:23:33.142Z,81.41
2023-05-18T05:24:33.200Z,81.48
2023-05-18T05:25:34.980Z,81.58
2023-05-18T05:26:33.098Z,81.68
2023-05-18T05:27:33.077Z,81.79
2023-05-18T05:28:33.101Z,81.79
2023-05-18T05:29:33.122Z,81.68
2023-05-18T05:30:33.083Z,81.27
2023-05-18T05:31:33.171Z,81.07
2023-05-18T05:32:33.065Z,81.07
2023-05-18T05:33:33.011Z,81.17
2023-05-18T05:34:33.014Z,81.44
2023-05-18T05:35:33.767Z,81.65
2023-05-18T05:36:32.977Z,81.34
2023-05-18T05:37:32.963Z,81.44
2023-05-18T05:38:32.957Z,81.75
2023-05-18T05:39:32.991Z,81.65
2023-05-18T05:40:32.943Z,81.54
2023-05-18T05:41:32.914Z,81.75
2023-05-18T05:42:32.904Z,82.06
2023-05-18T05:43:32.905Z,82.26
2023-05-18T05:44:32.979Z,82.26
2023-05-18T05:45:33.081Z,81.96
2023-05-18T05:46:32.864Z,81.71
2023-05-18T05:47:32.894Z,81.51
2023-05-18T05:48:32.836Z,81.61
2023-05-18T05:49:32.802Z,81.40
2023-05-18T05:50:32.816Z,81.51
2023-05-18T05:51:32.780Z,81.61
2023-05-18T05:52:32.779Z,81.40
2023-05-18T05:53:32.776Z,81.40
2023-05-18T05:54:32.758Z,81.40
2023-05-18T05:55:33.047Z,81.51
2023-05-18T05:56:32.721Z,81.67
2023-05-18T05:57:32.729Z,81.77
2023-05-18T05:58:32.708Z,81.77
2023-05-18T05:59:32.672Z,81.47
2023-05-18T06:00:32.668Z,81.23
2023-05-18T06:01:32.657Z,81.23
2023-05-18T06:02:32.753Z,80.30
2023-05-18T06:03:35.137Z,79.47
2023-05-18T06:04:32.722Z,79.37
2023-05-18T06:05:33.000Z,79.03
2023-05-18T06:06:32.614Z,78.51
2023-05-18T06:07:32.581Z,78.20
2023-05-18T06:08:32.568Z,78.30
2023-05-18T06:09:32.544Z,78.41
2023-05-18T06:10:32.520Z,78.37
2023-05-18T06:11:32.545Z,78.47
2023-05-18T06:12:32.526Z,77.96
2023-05-18T06:13:32.493Z,77.65
2023-05-18T06:14:32.498Z,77.34
2023-05-18T06:15:32.669Z,77.41
2023-05-18T06:16:32.557Z,77.62
2023-05-18T06:17:32.480Z,77.82
2023-05-18T06:18:32.429Z,77.20
2023-05-18T06:19:32.412Z,76.79
2023-05-18T06:20:32.437Z,76.14
2023-05-18T06:21:32.400Z,76.04
2023-05-18T06:22:32.373Z,75.42
2023-05-18T06:23:32.351Z,75.83
2023-05-18T06:24:32.364Z,75.93
2023-05-18T06:25:32.523Z,75.49
2023-05-18T06:26:32.406Z,75.59
2023-05-18T06:27:32.356Z,75.59
2023-05-18T06:28:32.306Z,75.59
2023-05-18T06:29:32.297Z,75.70
2023-05-18T06:30:32.295Z,75.38
2023-05-18T06:31:32.326Z,74.32
2023-05-18T06:32:32.276Z,73.71
2023-05-18T06:33:32.301Z,73.10
2023-05-18T06:34:32.220Z,73.50
2023-05-18T06:35:32.444Z,73.91
2023-05-18T06:36:32.203Z,73.78
2023-05-18T06:37:32.190Z,73.36
2023-05-18T06:38:32.171Z,73.06
2023-05-18T06:39:32.155Z,72.20
2023-05-18T06:40:32.160Z,72.82
2023-05-18T06:41:32.112Z,73.02
2023-05-18T06:42:32.112Z,80.47
2023-05-18T06:43:32.100Z,80.95
2023-05-18T06:44:32.080Z,80.40
2023-05-18T06:45:33.798Z,79.41
2023-05-18T06:46:32.138Z,76.71
2023-05-18T06:47:32.048Z,74.93
2023-05-18T06:48:32.047Z,74.11
2023-05-18T06:49:32.031Z,70.30
2023-05-18T06:50:32.069Z,72.34
2023-05-18T06:51:31.986Z,71.83
2023-05-18T06:52:31.974Z,72.92
2023-05-18T06:53:32.021Z,71.87
2023-05-18T06:54:31.965Z,68.60
2023-05-18T06:55:32.201Z,70.61
2023-05-18T06:56:31.946Z,69.69
2023-05-18T06:57:31.910Z,69.79
2023-05-18T06:58:31.897Z,69.15
2023-05-18T06:59:31.899Z,69.05
2023-05-18T07:00:31.890Z,68.84
2023-05-18T07:01:31.883Z,67.93
2023-05-18T07:02:31.874Z,66.97
2023-05-18T07:03:31.856Z,65.34
2023-05-18T07:04:31.851Z,65.95
2023-05-18T07:05:32.152Z,66.19
2023-05-18T07:06:31.805Z,66.16
2023-05-18T07:07:31.791Z,67.18
2023-05-18T07:08:31.792Z,64.32
2023-05-18T07:09:31.774Z,65.25
2023-05-18T07:10:31.738Z,64.84
2023-05-18T07:11:31.729Z,66.57
2023-05-18T07:12:31.711Z,65.95
2023-05-18T07:13:31.706Z,65.65
2023-05-18T07:14:31.684Z,65.95
2023-05-18T07:15:31.859Z,65.45
2023-05-18T07:16:31.808Z,65.86
2023-05-18T07:17:31.652Z,65.45
2023-05-18T07:18:31.650Z,63.61
2023-05-18T07:19:31.606Z,65.45
2023-05-18T07:20:31.608Z,64.84
2023-05-18T07:21:31.588Z,62.49
2023-05-18T07:22:31.610Z,64.73
2023-05-18T07:23:31.585Z,65.65
2023-05-18T07:24:31.556Z,65.34
2023-05-18T07:25:31.761Z,64.43
2023-05-18T07:26:31.537Z,64.94
2023-05-18T07:27:31.552Z,63.92
2023-05-18T07:28:31.502Z,64.53
2023-05-18T07:29:31.489Z,65.14
2023-05-18T07:30:31.469Z,64.73
2023-05-18T07:31:31.515Z,64.84
2023-05-18T07:32:31.543Z,65.04
2023-05-18T07:33:31.433Z,65.42
2023-05-18T07:34:31.430Z,65.42
2023-05-18T07:35:31.639Z,63.38
2023-05-18T07:36:31.390Z,65.52
2023-05-18T07:37:31.396Z,65.42
2023-05-18T07:38:31.355Z,65.49
2023-05-18T07:39:31.358Z,65.49
2023-05-18T07:40:31.345Z,64.87
2023-05-18T07:41:31.399Z,62.13
2023-05-18T07:42:31.334Z,63.76
2023-05-18T07:43:31.292Z,62.33
2023-05-18T07:44:31.288Z,63.15
2023-05-18T07:45:31.657Z,62.54
2023-05-18T07:46:31.292Z,63.28
2023-05-18T07:47:31.258Z,65.11
2023-05-18T07:48:31.239Z,64.67
2023-05-18T07:49:31.217Z,63.45
2023-05-18T07:50:31.216Z,64.37
2023-05-18T07:51:31.209Z,64.26
2023-05-18T07:52:31.200Z,64.47
2023-05-18T07:53:31.172Z,62.54
2023-05-18T07:54:31.149Z,63.56
2023-05-18T07:55:31.379Z,63.96
2023-05-18T07:56:31.127Z,63.56
2023-05-18T07:57:31.190Z,64.57
2023-05-18T07:58:31.091Z,64.26
2023-05-18T07:59:31.083Z,64.64
2023-05-18T08:00:31.108Z,63.12
2023-05-18T08:01:31.068Z,62.51
2023-05-18T08:02:33.540Z,60.57
2023-05-18T08:03:31.100Z,60.70
2023-05-18T08:04:31.095Z,60.30
2023-05-18T08:05:31.481Z,60.80
2023-05-18T08:06:30.985Z,61.41
2023-05-18T08:07:30.980Z,62.26
2023-05-18T08:08:31.013Z,62.05
2023-05-18T08:09:30.980Z,61.54
2023-05-18T08:10:30.969Z,62.05
2023-05-18T08:11:30.921Z,62.46
2023-05-18T08:12:30.911Z,62.16
2023-05-18T08:13:33.331Z,62.36
2023-05-18T08:14:30.896Z,62.97
2023-05-18T08:15:31.117Z,62.36
2023-05-18T08:16:30.884Z,62.87
2023-05-18T08:17:30.874Z,62.46
2023-05-18T08:18:30.820Z,61.57
2023-05-18T08:19:30.872Z,61.98
2023-05-18T08:20:30.808Z,62.49
2023-05-18T08:21:30.790Z,62.97
2023-05-18T08:22:30.766Z,63.48
2023-05-18T08:23:30.764Z,63.58
2023-05-18T08:24:30.757Z,63.07
2023-05-18T08:25:31.009Z,63.07
2023-05-18T08:26:30.720Z,63.38
2023-05-18T08:27:30.749Z,63.68
2023-05-18T08:28:30.702Z,62.87
2023-05-18T08:29:30.687Z,63.28
2023-05-18T08:30:30.668Z,62.54
2023-05-18T08:31:30.678Z,63.76
2023-05-18T08:32:30.716Z,63.15
2023-05-18T08:33:30.648Z,63.04
2023-05-18T08:34:30.610Z,63.15
2023-05-18T08:35:30.846Z,63.86
2023-05-18T08:36:30.639Z,63.76
2023-05-18T08:37:30.569Z,63.35
2023-05-18T08:38:30.575Z,63.15
2023-05-18T08:39:31.027Z,63.04
2023-05-18T08:40:30.534Z,63.35
2023-05-18T08:41:30.506Z,62.81
2023-05-18T08:42:41.636Z,63.32
2023-05-18T08:43:31.508Z,64.44
2023-05-18T08:44:30.482Z,64.44
2023-05-18T08:45:30.942Z,63.93
2023-05-18T08:46:30.441Z,62.51
2023-05-18T08:47:30.492Z,61.29
2023-05-18T08:48:30.545Z,62.81
2023-05-18T08:49:30.405Z,63.53
2023-05-18T08:50:30.732Z,63.53
2023-05-18T08:51:30.526Z,63.19
2023-05-18T08:52:30.374Z,62.58
2023-05-18T08:53:30.369Z,64.11
2023-05-18T08:54:30.333Z,63.29
2023-05-18T08:55:30.659Z,63.80
2023-05-18T08:56:30.305Z,64.41
2023-05-18T08:57:33.076Z,64.00
2023-05-18T08:58:32.482Z,62.48
2023-05-18T08:59:30.537Z,63.36
2023-05-18T09:00:32.184Z,63.67
2023-05-18T09:01:30.334Z,63.46
2023-05-18T09:02:30.266Z,63.77
2023-05-18T09:03:30.256Z,62.75
2023-05-18T09:04:30.286Z,60.61
2023-05-18T09:05:30.589Z,62.04
2023-05-18T09:06:30.177Z,60.59
2023-05-18T09:07:30.178Z,61.20
2023-05-18T09:08:30.165Z,61.30
2023-05-18T09:09:30.151Z,59.88
2023-05-18T09:10:30.119Z,58.76
2023-05-18T09:11:30.125Z,58.73
2023-05-18T09:12:30.130Z,60.46
2023-05-18T09:13:30.073Z,60.36
2023-05-18T09:14:30.091Z,60.97
2023-05-18T09:15:30.273Z,60.22
2023-05-18T09:16:30.165Z,56.57
2023-05-18T09:17:30.053Z,54.94
2023-05-18T09:18:30.034Z,55.05
2023-05-18T09:19:30.028Z,55.35
2023-05-18T09:20:30.048Z,55.32
2023-05-18T09:21:30.005Z,53.93
2023-05-18T09:22:29.951Z,55.25
2023-05-18T09:23:29.950Z,53.02
2023-05-18T09:24:29.952Z,52.10
2023-05-18T09:25:30.182Z,51.29
2023-05-18T09:26:29.930Z,50.37
2023-05-18T09:27:29.901Z,51.59
2023-05-18T09:28:29.872Z,55.96
2023-05-18T09:29:32.341Z,55.76
2023-05-18T09:30:29.896Z,57.15
2023-05-18T09:31:29.935Z,55.02
2023-05-18T09:32:29.848Z,55.43
2023-05-18T09:33:30.287Z,56.11
2023-05-18T09:34:29.800Z,56.82
2023-05-18T09:35:30.329Z,58.34
2023-05-18T09:36:29.765Z,58.52
2023-05-18T09:37:29.763Z,56.18
2023-05-18T09:38:29.749Z,52.92
2023-05-18T09:39:29.769Z,55.47
2023-05-18T09:40:29.744Z,54.26
2023-05-18T09:41:29.752Z,53.65
2023-05-18T09:42:29.682Z,51.93
2023-05-18T09:43:29.687Z,51.42
2023-05-18T09:44:29.688Z,51.82
2023-05-18T09:45:29.865Z,51.01
2023-05-18T09:46:29.663Z,52.73
2023-05-18T09:47:29.648Z,50.71
2023-05-18T09:48:29.616Z,47.49
2023-05-18T09:49:29.614Z,48.40
2023-05-18T09:50:29.598Z,49.92
2023-05-18T09:51:29.612Z,48.11
2023-05-18T09:52:29.560Z,48.42
2023-05-18T09:53:29.541Z,49.23
2023-05-18T09:54:29.596Z,52.05
2023-05-18T09:55:29.733Z,52.56
2023-05-18T09:56:29.528Z,51.14
2023-05-18T09:57:29.529Z,51.04
2023-05-18T09:58:29.525Z,51.67
2023-05-18T09:59:29.513Z,50.45
2023-05-18T10:00:29.482Z,52.89
2023-05-18T10:01:29.581Z,52.08
2023-05-18T10:02:29.559Z,51.06
2023-05-18T10:03:29.452Z,52.58
2023-05-18T10:04:29.438Z,49.74
2023-05-18T10:05:29.555Z,50.65
2023-05-18T10:06:29.396Z,51.87
2023-05-18T10:07:29.376Z,51.65
2023-05-18T10:08:29.362Z,52.56
2023-05-18T10:09:29.343Z,53.27
2023-05-18T10:10:29.648Z,53.14
2023-05-18T10:11:29.305Z,53.85
2023-05-18T10:12:29.308Z,52.31
2023-05-18T10:13:29.291Z,51.09
2023-05-18T10:14:31.267Z,50.99
2023-05-18T10:15:29.421Z,49.57
2023-05-18T10:16:29.264Z,49.06
2023-05-18T10:17:29.311Z,51.39
2023-05-18T10:18:29.240Z,50.79
2023-05-18T10:19:29.247Z,50.68
2023-05-18T10:20:29.371Z,50.18
2023-05-18T10:21:29.198Z,50.08
2023-05-18T10:22:29.162Z,50.48
2023-05-18T10:23:29.165Z,51.29
2023-05-18T10:24:29.120Z,50.28
2023-05-18T10:25:29.125Z,51.50
2023-05-18T10:26:29.110Z,51.47
2023-05-18T10:27:29.108Z,52.28
2023-05-18T10:28:29.085Z,51.98
2023-05-18T10:29:29.054Z,51.98
2023-05-18T10:30:29.357Z,49.95
2023-05-18T10:31:29.110Z,51.14
2023-05-18T10:32:29.056Z,51.04
2023-05-18T10:33:30.154Z,50.54
2023-05-18T10:34:28.993Z,51.55
2023-05-18T10:35:28.975Z,51.35
2023-05-18T10:36:28.984Z,49.73
2023-05-18T10:37:28.967Z,50.34
2023-05-18T10:38:28.931Z,50.84
2023-05-18T10:39:28.920Z,50.03
2023-05-18T10:40:29.232Z,50.23
2023-05-18T10:41:28.923Z,51.25
2023-05-18T10:42:28.881Z,52.15
2023-05-18T10:43:28.882Z,51.25
2023-05-18T10:44:28.869Z,50.13
2023-05-18T10:45:28.864Z,51.55
2023-05-18T10:46:28.934Z,51.86
2023-05-18T10:47:29.009Z,52.36
2023-05-18T10:48:28.908Z,50.26
2023-05-18T10:49:28.791Z,51.17
2023-05-18T10:50:28.970Z,50.35
2023-05-18T10:51:28.791Z,50.94
2023-05-18T10:52:28.807Z,50.84
2023-05-18T10:53:28.742Z,51.25
2023-05-18T10:54:28.712Z,51.86
2023-05-18T10:55:28.769Z,50.03
2023-05-18T10:56:28.702Z,50.23
2023-05-18T10:57:28.685Z,51.14
2023-05-18T10:58:28.677Z,51.14
2023-05-18T10:59:28.687Z,50.74
2023-05-18T11:00:28.860Z,50.35
2023-05-18T11:01:28.647Z,51.57
2023-05-18T11:02:28.656Z,51.88
2023-05-18T11:03:28.800Z,51.55
2023-05-18T11:04:28.649Z,50.94
2023-05-18T11:05:28.602Z,51.14
2023-05-18T11:06:28.560Z,53.47
2023-05-18T11:07:28.557Z,52.76
2023-05-18T11:08:28.518Z,54.79
2023-05-18T11:09:28.540Z,53.45
2023-05-18T11:10:28.627Z,51.32
2023-05-18T11:11:28.513Z,49.19
2023-05-18T11:12:28.478Z,51.83
2023-05-18T11:13:28.461Z,48.99
2023-05-18T11:14:28.480Z,49.60
2023-05-18T11:15:28.441Z,50.79
2023-05-18T11:16:30.520Z,50.29
2023-05-18T11:17:28.456Z,51.50
2023-05-18T11:18:28.388Z,50.26
2023-05-18T11:19:28.406Z,49.25
2023-05-18T11:20:28.385Z,51.48
2023-05-18T11:21:28.351Z,51.57
2023-05-18T11:22:29.907Z,50.87
2023-05-18T11:23:28.343Z,50.16
2023-05-18T11:24:28.333Z,53.19
2023-05-18T11:25:28.410Z,54.21
2023-05-18T11:26:28.281Z,51.88
2023-05-18T11:27:28.274Z,51.48
2023-05-18T11:28:28.269Z,51.88
2023-05-18T11:29:28.241Z,51.28
2023-05-18T11:30:28.243Z,50.64
2023-05-18T11:31:28.231Z,49.73
2023-05-18T11:32:30.325Z,48.42
2023-05-18T11:33:28.260Z,48.32
2023-05-18T11:34:28.159Z,48.82
2023-05-18T11:35:28.168Z,49.22
2023-05-18T11:36:28.151Z,49.93
2023-05-18T11:37:28.146Z,50.32
2023-05-18T11:38:28.135Z,50.72
2023-05-18T11:39:28.114Z,51.12
2023-05-18T11:40:28.127Z,49.61
2023-05-18T11:41:28.090Z,48.39
2023-05-18T11:42:28.083Z,47.99
2023-05-18T11:43:28.064Z,49.51
2023-05-18T11:44:28.066Z,48.50
2023-05-18T11:45:28.035Z,48.50
2023-05-18T11:46:28.005Z,50.82
2023-05-18T11:47:28.029Z,49.10
2023-05-18T11:48:28.050Z,47.08
2023-05-18T11:49:27.964Z,47.59
2023-05-18T11:50:27.996Z,47.69
2023-05-18T11:51:27.936Z,48.80
2023-05-18T11:52:27.944Z,47.69
2023-05-18T11:53:27.911Z,47.20
2023-05-18T11:54:27.940Z,48.62
2023-05-18T11:55:27.892Z,45.99
2023-05-18T11:56:27.860Z,46.30
2023-05-18T11:57:27.882Z,49.93
2023-05-18T11:58:27.854Z,48.62
2023-05-18T11:59:27.833Z,49.41
2023-05-18T12:00:27.821Z,48.80
2023-05-18T12:01:27.835Z,47.89
2023-05-18T12:02:27.948Z,49.61
2023-05-18T12:03:27.845Z,50.19
2023-05-18T12:04:27.806Z,49.48
2023-05-18T12:05:27.743Z,46.66
2023-05-18T12:06:27.763Z,46.36
2023-05-18T12:07:27.731Z,47.74
2023-05-18T12:08:27.729Z,47.64
2023-05-18T12:09:27.695Z,47.04
2023-05-18T12:10:27.695Z,49.36
2023-05-18T12:11:27.698Z,48.83
2023-05-18T12:12:27.685Z,48.02
2023-05-18T12:13:27.645Z,46.61
2023-05-18T12:14:27.632Z,45.81
2023-05-18T12:15:27.644Z,46.11
2023-05-18T12:16:27.676Z,46.11
2023-05-18T12:17:27.628Z,46.33
2023-05-18T12:18:27.580Z,48.63
2023-05-18T12:19:27.752Z,47.32
2023-05-18T12:20:27.586Z,47.62
2023-05-18T12:21:27.551Z,46.71
2023-05-18T12:22:27.510Z,47.02
2023-05-18T12:23:27.500Z,46.41
2023-05-18T12:24:27.490Z,45.81
2023-05-18T12:25:27.478Z,46.81
2023-05-18T12:26:27.462Z,46.71
2023-05-18T12:27:27.435Z,48.33
2023-05-18T12:28:27.442Z,46.19
2023-05-18T12:29:27.441Z,47.90
2023-05-18T12:30:27.448Z,48.00
2023-05-18T12:31:27.425Z,48.28
2023-05-18T12:32:27.398Z,47.98
2023-05-18T12:33:27.390Z,46.77
2023-05-18T12:34:27.384Z,44.05
2023-05-18T12:35:27.379Z,46.37
2023-05-18T12:36:27.377Z,47.15
2023-05-18T12:37:34.178Z,47.25
2023-05-18T12:38:28.323Z,47.55
2023-05-18T12:39:28.942Z,45.82
2023-05-18T12:40:27.290Z,44.73
2023-05-18T12:41:34.444Z,45.54
2023-05-18T12:42:27.257Z,45.64
2023-05-18T12:43:27.244Z,46.55
2023-05-18T12:44:27.273Z,46.62
2023-05-18T12:45:27.224Z,46.33
2023-05-18T12:46:27.338Z,45.82
2023-05-18T12:47:27.225Z,44.51
2023-05-18T12:48:27.219Z,46.33
2023-05-18T12:49:27.219Z,45.72
2023-05-18T12:50:27.284Z,43.30
2023-05-18T12:51:27.156Z,45.21
2023-05-18T12:52:27.160Z,46.53